Bronx, New York
Current Conditions -  °F | °C
As of 1:51 AM on Saturday 25 Oct 2014 (Local Time) from KLGA Reporting Station
Broken Clouds Broken Clouds  
Wind Chill: 13°   Ceiling: 25000
Heat Index: 13°   Visibility: 10mi
Dew Point:   Wind: 13mph
Humidity: 49%   Direction: 320°NW
Pressure: 29.85"   Gusts: NA
Location:  40.85°N, 73.87°W
Report Text: KLGA 250551Z 32011KT 10SM BKN250 13/03 A2985 RMK AO2 SLP107 T01330028 10156 20133 53006
Loading
Personal Weather Stations






























Interactive Weather Map
Tropical Storm Tracking
New forecast layout! Learn more

10-Day Weather Forecast

Advertisements
Track Severe Weather on mobile